Flight Track Log - Related Links

Times and Time Zones

All times are in EDT time to prevent confusion due to time zone crossing. See the SWA1821 flight status page for this flight to view local times or setup timezone preferences in your user account.

Time Position Orientation Groundspeed Altitude Reporting Facility
EDT Latitude Longitude Course Direction KTS MPH feet Rate Location/Type
Sat 07:26:15 AM 42.1946 -73.8000 359° North  Level FlightAware Approximate
Sat 07:27:15 AM 42.0890 -73.8000 359° North  Level FlightAware Approximate
Sat 07:28:05 AM 42.7694 -73.8089 320° Northwest 152 175 1,600  Level Boston Center
Sat 07:29:48 AM 42.8331 -73.8811 314° West 212 244 7,300 3,092 Climbing Boston Center
Sat 07:30:48 AM 42.8761 -73.9417 259° West 212 244 10,000 2,150 Climbing Boston Center
Sat 07:31:48 AM 42.8622 -74.0406 179° South 257 296 11,600 2,450 Climbing Boston Center
Sat 07:32:48 AM 42.7728 -74.0381 173° South 246 283 14,900 3,200 Climbing Boston Center
Sat 07:33:48 AM 42.6625 -74.0183 172° South 307 353 18,000 2,900 Climbing Boston Center
Sat 07:34:48 AM 42.5503 -73.9958 178° South 368 423 20,700 2,500 Climbing Boston Center
Sat 07:35:48 AM 42.4211 -73.9897 187° South 406 467 23,000 2,150 Climbing Boston Center
Sat 07:36:48 AM 42.3083 -74.0094 188° South 432 497 25,000 2,150 Climbing Boston Center
Sat 07:37:48 AM 42.1642 -74.0367 187° South 468 539 27,300 1,950 Climbing Boston Center
Sat 07:38:48 AM 42.0283 -74.0583 195° South 482 555 28,900 1,547 Climbing Boston Center
Sat 07:40:27 AM 41.8092 -74.1383 196° South 551 634 31,400 1,725 Climbing New York Center
Sat 07:41:28 AM 41.6764 -74.1897 198° South 520 598 33,500 2,000 Climbing New York Center
Sat 07:42:30 AM 41.5500 -74.2444 197° South 492 566 35,500 1,525 Climbing New York Center
Sat 07:43:30 AM 41.4233 -74.2958 195° South 478 550 36,600 1,068 Climbing New York Center
Sat 07:44:28 AM 41.2950 -74.3417 197° South 478 550 37,600 700 Climbing New York Center
Sat 07:45:30 AM 41.1686 -74.3928 197° South 478 550 38,000 197 Climbing New York Center
Sat 07:46:30 AM 41.0442 -74.4439 196° South 478 550 38,000  Level New York Center
Sat 07:47:29 AM 40.9175 -74.4919 197° South 478 550 38,000  Level New York Center
Sat 07:48:29 AM 40.7908 -74.5425 196° South 483 556 38,000  Level New York Center
Sat 07:52:18 AM 40.3083 -74.7292 197° South 464 534 38,000  Level Washington Center
Sat 07:53:19 AM 40.1817 -74.7797 197° South 470 541 38,000  Level Washington Center
Sat 07:54:19 AM 40.0528 -74.8297 195° South 481 554 38,000  Level Washington Center
Sat 07:55:20 AM 39.9281 -74.8744 197° South 475 547 38,000  Level Washington Center
Sat 07:56:18 AM 39.8011 -74.9244 196° South 480 552 38,000  Level Washington Center
Sat 07:57:18 AM 39.6889 -74.9658 197° South 474 545 38,000  Level Washington Center
Sat 07:58:19 AM 39.5622 -75.0156 196° South 485 558 38,000  Level Washington Center
Sat 07:59:20 AM 39.4372 -75.0622 196° South 475 547 38,000  Level Washington Center
Sat 08:00:18 AM 39.3125 -75.1089 205° Southwest 475 547 38,000  Level Washington Center
Sat 08:01:19 AM 39.1939 -75.1792 205° Southwest 475 547 38,000  Level Washington Center
Sat 08:02:18 AM 39.0733 -75.2519 202° Southwest 475 547 38,000  Level Washington Center
Sat 08:03:20 AM 38.9547 -75.3142 207° Southwest 475 547 38,000  Level Washington Center
Sat 08:04:18 AM 38.8422 -75.3892 204° Southwest 470 541 38,000  Level Washington Center
Sat 08:05:19 AM 38.7256 -75.4558 206° Southwest 460 529 38,000  Level Washington Center
Sat 08:06:20 AM 38.6131 -75.5253 204° Southwest 460 529 38,000  Level Washington Center
Sat 08:07:20 AM 38.4983 -75.5892 205° Southwest 460 529 38,000  Level Washington Center
Sat 08:08:20 AM 38.3858 -75.6553 203° Southwest 460 529 38,000  Level Washington Center
Sat 08:09:18 AM 38.2564 -75.7267 204° Southwest 460 529 38,000 252 Level Washington Center
Sat 08:10:19 AM 38.1417 -75.7925 205° Southwest 460 529 38,500 590 Climbing Washington Center
Sat 08:11:20 AM 38.0228 -75.8633 204° Southwest 465 535 39,200 744 Climbing Washington Center
Sat 08:12:20 AM 37.9058 -75.9286 205° Southwest 465 535 40,000 407 Climbing Washington Center
Sat 08:13:18 AM 37.7867 -75.9992 206° Southwest 465 535 40,000  Level Washington Center
Sat 08:14:18 AM 37.6739 -76.0692 204° Southwest 465 535 40,000  Level Washington Center
Sat 08:15:18 AM 37.5589 -76.1342 202° Southwest 465 535 40,000  Level Washington Center
Sat 08:16:19 AM 37.4356 -76.1961 206° Southwest 465 535 40,000  Level Washington Center
Sat 08:17:19 AM 37.3203 -76.2656 204° Southwest 465 535 40,000  Level Washington Center
Sat 08:18:20 AM 37.2031 -76.3297 204° Southwest 460 529 40,000  Level Washington Center
Sat 08:19:18 AM 37.0858 -76.3964 204° Southwest 460 529 40,000  Level Washington Center
Sat 08:20:20 AM 36.9686 -76.4628 204° Southwest 460 529 40,000  Level Washington Center
Sat 08:21:18 AM 36.8514 -76.5289 203° Southwest 460 529 40,000  Level Washington Center
Sat 08:22:19 AM 36.7339 -76.5922 205° Southwest 460 529 40,000  Level Washington Center
Sat 08:23:19 AM 36.6311 -76.6531 205° Southwest 460 529 40,000  Level Washington Center
Sat 08:24:19 AM 36.5158 -76.7189 204° Southwest 460 529 40,000  Level Washington Center
Sat 08:25:20 AM 36.4006 -76.7817 203° Southwest 460 529 40,000  Level Washington Center
Sat 08:26:17 AM 36.2831 -76.8442 204° Southwest 460 529 40,000  Level Washington Center
Sat 08:27:19 AM 36.1656 -76.9092 203° Southwest 460 529 40,000  Level Washington Center
Sat 08:28:19 AM 36.0481 -76.9717 204° Southwest 460 529 40,000  Level Washington Center
Sat 08:29:20 AM 35.9325 -77.0361 203° Southwest 460 529 40,000  Level Washington Center
Sat 08:30:18 AM 35.8147 -77.0981 203° Southwest 460 529 40,000  Level Washington Center
Sat 08:31:18 AM 35.6889 -77.1647 205° Southwest 460 529 40,000  Level Washington Center
Sat 08:32:19 AM 35.5711 -77.2314 202° Southwest 465 535 40,000  Level Washington Center
Sat 08:33:19 AM 35.4597 -77.2878 203° Southwest 470 541 40,000  Level Washington Center
Sat 08:34:20 AM 35.3419 -77.3489 204° Southwest 458 527 40,000  Level Washington Center
Sat 08:35:17 AM 35.2242 -77.4125 204° Southwest 464 534 40,000  Level Washington Center
Sat 08:36:18 AM 35.1083 -77.4758 203° Southwest 464 534 40,000  Level Washington Center
Sat 08:37:19 AM 34.9928 -77.5367 203° Southwest 458 527 40,000  Level Washington Center
Sat 08:38:17 AM 34.8644 -77.6019 206° Southwest 458 527 40,000  Level Washington Center
Sat 08:39:18 AM 34.7528 -77.6675 203° Southwest 458 527 40,000  Level Washington Center
Sat 08:40:19 AM 34.6369 -77.7275 203° Southwest 458 527 40,000  Level Washington Center
Sat 08:41:19 AM 34.5189 -77.7875 203° Southwest 458 527 40,000  Level Washington Center
Sat 08:43:03 AM 34.3150 -77.8900 190° South 471 542 40,000  Level Jacksonville Center
Sat 08:44:03 AM 34.1931 -77.9169 195° South 473 544 40,000  Level Jacksonville Center
Sat 08:45:04 AM 34.0797 -77.9536 194° South 479 551 40,000  Level Jacksonville Center
Sat 08:46:04 AM 33.9314 -77.9969 193° South 470 541 40,000  Level Jacksonville Center
Sat 08:47:04 AM 33.8033 -78.0317 196° South 476 548 40,000  Level Jacksonville Center
Sat 08:48:04 AM 33.6775 -78.0736 193° South 465 535 40,000  Level Jacksonville Center
Sat 08:49:04 AM 33.5619 -78.1047 193° South 470 541 40,000  Level Jacksonville Center
Sat 08:50:04 AM 33.4339 -78.1414 194° South 470 541 40,000  Level Jacksonville Center
Sat 08:51:04 AM 33.3081 -78.1781 194° South 470 541 40,000  Level Jacksonville Center
Sat 08:52:04 AM 33.1822 -78.2144 193° South 470 541 40,000  Level Jacksonville Center
Sat 08:53:04 AM 33.0561 -78.2483 195° South 470 541 40,000  Level Jacksonville Center
Sat 08:54:04 AM 32.9322 -78.2869 193° South 470 541 40,000  Level Jacksonville Center
Sat 08:55:04 AM 32.8083 -78.3203 193° South 470 541 40,000  Level Jacksonville Center
Sat 08:56:04 AM 32.6842 -78.3539 193° South 465 535 40,000  Level Jacksonville Center
Sat 08:57:04 AM 32.5583 -78.3897 194° South 465 535 40,000  Level Jacksonville Center
Sat 08:58:04 AM 32.4342 -78.4253 192° South 465 535 40,000  Level Jacksonville Center
Sat 08:59:04 AM 32.3019 -78.4589 194° South 465 535 40,000  Level Jacksonville Center
Sat 09:00:04 AM 32.1819 -78.4942 193° South 458 527 40,000  Level Jacksonville Center
Sat 09:01:04 AM 32.0558 -78.5294 195° South 458 527 40,000  Level Jacksonville Center
Sat 09:02:04 AM 31.9319 -78.5672 194° South 458 527 40,000  Level Jacksonville Center
Sat 09:03:04 AM 31.8100 -78.6022 193° South 458 527 40,000  Level Jacksonville Center
Sat 09:04:04 AM 31.6900 -78.6347 194° South 451 519 40,000  Level Jacksonville Center
Sat 09:05:03 AM 31.5681 -78.6694 194° South 446 513 40,000  Level Jacksonville Center
Sat 09:06:04 AM 31.4461 -78.7044 194° South 471 542 40,000  Level Jacksonville Center
Sat 09:07:03 AM 31.3219 -78.7414 193° South 451 519 40,000  Level Jacksonville Center
Sat 09:08:03 AM 31.2000 -78.7736 194° South 448 516 40,000  Level Jacksonville Center
Sat 09:09:03 AM 31.0736 -78.8106 193° South 472 543 40,000  Level Jacksonville Center
Sat 09:10:03 AM 30.9494 -78.8450 193° South 500 575 40,000  Level Jacksonville Center
Sat 09:11:03 AM 30.8192 -78.8797 194° South 493 567 40,000  Level Jacksonville Center
Sat 09:13:27 AM 30.5253 -78.9647 192° South 460 529 40,000  Level Miami Center
Sat 09:14:27 AM 30.3956 -78.9981 194° South 459 528 40,000  Level Miami Center
Sat 09:15:27 AM 30.2742 -79.0342 192° South 459 528 40,000  Level Miami Center
Sat 09:16:27 AM 30.1486 -79.0650 193° South 464 534 40,000  Level Miami Center
Sat 09:17:27 AM 30.0272 -79.0961 193° South 459 528 40,000  Level Miami Center
Sat 09:18:27 AM 29.8994 -79.1294 197° South 441 507 40,000  Level Miami Center
Sat 09:19:27 AM 29.7822 -79.1700 190° South 441 507 40,000  Level Miami Center
Sat 09:20:27 AM 29.6586 -79.1958 192° South 446 513 40,000  Level Miami Center
Sat 09:21:27 AM 29.5372 -79.2267 192° South 446 513 40,000  Level Miami Center
Sat 09:22:27 AM 29.4178 -79.2550 191° South 451 519 40,000  Level Miami Center
Sat 09:23:27 AM 29.2942 -79.2833 194° South 451 519 40,000  Level Miami Center
Sat 09:24:27 AM 29.1769 -79.3164 192° South 451 519 40,000  Level Miami Center
Sat 09:25:27 AM 29.0553 -79.3469 192° South 451 519 40,000  Level Miami Center
Sat 09:26:27 AM 28.9339 -79.3775 193° South 451 519 40,000  Level Miami Center
Sat 09:27:27 AM 28.8144 -79.4078 192° South 451 519 40,000  Level Miami Center
Sat 09:28:27 AM 28.6908 -79.4381 193° South 451 519 40,000  Level Miami Center
Sat 09:29:27 AM 28.5669 -79.4708 192° South 451 519 40,000  Level Miami Center
Sat 09:30:27 AM 28.4453 -79.5008 191° South 451 519 40,000  Level Miami Center
Sat 09:31:27 AM 28.3217 -79.5286 193° South 451 519 40,000  Level Miami Center
Sat 09:32:27 AM 28.2000 -79.5611 191° South 451 519 40,000  Level Miami Center
Sat 09:33:27 AM 28.0783 -79.5889 193° South 451 519 40,000 -550 Level Miami Center
Sat 09:34:27 AM 27.9589 -79.6189 192° South 451 519 38,900 -1,800 Descending Miami Center
Sat 09:35:27 AM 27.8519 -79.6444 193° South 451 519 36,400 -2,750 Descending Miami Center
Sat 09:36:27 AM 27.7322 -79.6767 192° South 445 512 33,400 -3,200 Descending Miami Center
Sat 09:37:27 AM 27.5961 -79.7086 192° South 452 520 30,000 -2,950 Descending Miami Center
Sat 09:38:27 AM 27.4786 -79.7361 192° South 447 514 27,500 -2,400 Descending Miami Center
Sat 09:39:27 AM 27.3611 -79.7636 178° South 441 507 25,200 -1,750 Descending Miami Center
Sat 09:40:27 AM 27.2567 -79.7586 166° South 428 493 24,000 -600 Descending Miami Center
Sat 09:41:27 AM 27.1281 -79.7228 165° South 433 498 24,000 -1,650 Level Miami Center
Sat 09:42:27 AM 27.0117 -79.6872 165° South 433 498 20,700 -3,300 Descending Miami Center
Sat 09:43:27 AM 26.8914 -79.6517 188° South 438 504 17,400 -3,200 Descending Miami Center
Sat 09:44:27 AM 26.7739 -79.6697 204° Southwest 405 466 14,300 -2,504 Descending Miami Center
Sat 09:45:22 AM 26.6811 -79.7164 205° Southwest 397 457 12,600 -2,600 Descending Miami Center
Sat 09:46:27 AM 26.5778 -79.7697 202° Southwest 394 453 9,100 -2,208 Descending Miami Center
Sat 09:47:27 AM 26.4808 -79.8136 202° Southwest 386 444 8,000 -550 Descending Miami Center
Sat 09:48:27 AM 26.4133 -79.8444 214° Southwest 330 380 8,000 -800 Level Miami Center
Sat 09:49:27 AM 26.3411 -79.8983 222° Southwest 296 341 6,400 -1,000 Descending Miami Center
Sat 09:50:27 AM 26.2900 -79.9503 220° Southwest 284 327 6,000 -200 Descending Miami Center
Sat 09:51:27 AM 26.2325 -80.0044 221° Southwest 264 304 6,000  Level Miami Center
Sat 09:52:27 AM 26.1833 -80.0517 250° West 252 290 6,000  Level Miami Center
Sat 09:53:27 AM 26.1608 -80.1206 261° West 242 278 6,000 -450 Level Miami Center
Sat 09:54:27 AM 26.1508 -80.1942 270° West 236 272 5,100 -863 Descending Miami Center
Sat 09:55:46 AM 26.1508 -80.2939 267° West 240 276 4,000 -452 Descending Miami Center
Sat 09:56:53 AM 26.1467 -80.3747 273° West 237 273 4,000  Level Miami Center
Sat 09:57:49 AM 26.1494 -80.4325 258° West 195 224 4,000  Level Miami Center
Sat 09:58:55 AM 26.1375 -80.4947 169° South 196 226 4,000  Level Miami Center
Sat 09:59:56 AM 26.0856 -80.4839 101° East 189 217 4,000  Level Miami Center
Sat 10:00:57 AM 26.0764 -80.4303 93° East 178 205 4,000 -246 Level Miami Center
Sat 10:01:58 AM 26.0736 -80.3772 86° East 179 206 3,500 -621 Descending Miami Center
Sat 10:02:53 AM 26.0767 -80.3286 93° East 163 188 2,800 -836 Descending Miami Center
Sat 10:04:00 AM 26.0739 -80.2753 89° East 156 180 1,800 -787 Descending Miami Center
Sat 10:04:55 AM 26.0747 -80.2361 92° East 129 148 1,200 -639 Descending Miami Center
Sat 10:06:02 AM 26.0736 -80.1922 92° East 128 147 500 -627 Descending Miami Center

Login

Don't have an account? Register now (free) for customized features, flight alerts, and more!